Time;durP1;ratioP1;P1;durP2;ratioP2;P2;SDS_P1;SDS_P2;PMS_P1;PMS_P2;Temp;Humidity;BMP_temperature;BMP_pressure;BME280_temperature;BME280_humidity;BME280_pressure;Samples;Min_cycle;Max_cycle;Signal;HPM_P1;HPM_P2
2023/03/12 00:01:52;;;;;;;8.13;4.32;;;11.00;59.10;;;;;;5076089;28;20454;-20
2023/03/12 00:04:18;;;;;;;8.57;4.50;;;11.00;58.60;;;;;;5058095;28;20020;-19
2023/03/12 00:06:44;;;;;;;8.35;4.75;;;11.00;58.50;;;;;;5133414;22;20048;-17
2023/03/12 00:09:10;;;;;;;11.32;5.18;;;10.90;58.40;;;;;;5075887;28;20028;-18
2023/03/12 00:11:36;;;;;;;8.13;4.40;;;10.90;58.20;;;;;;5075725;28;20043;-18
2023/03/12 00:14:02;;;;;;;8.57;4.03;;;10.80;58.40;;;;;;5075686;28;20028;-17
2023/03/12 00:16:28;;;;;;;7.43;3.88;;;10.90;57.20;;;;;;5075908;28;20020;-15
2023/03/12 00:18:55;;;;;;;6.05;3.80;;;10.80;57.00;;;;;;5075322;28;20096;-17
2023/03/12 00:21:21;;;;;;;6.85;3.70;;;10.80;56.90;;;;;;5174325;22;20056;-16
2023/03/12 00:23:48;;;;;;;6.50;3.90;;;10.70;57.10;;;;;;5077485;28;20024;-17
2023/03/12 00:26:15;;;;;;;5.75;3.75;;;10.60;57.10;;;;;;5095877;28;20026;-18
2023/03/12 00:28:41;;;;;;;7.28;3.70;;;10.60;57.40;;;;;;5095227;28;20093;-18
2023/03/12 00:31:19;;;;;;;9.98;4.47;;;10.60;57.60;;;;;;5095495;28;20028;-17
2023/03/12 00:33:48;;;;;;;8.15;4.57;;;10.50;58.20;;;;;;5095721;28;20028;-17
2023/03/12 00:36:16;;;;;;;7.57;4.57;;;10.40;59.00;;;;;;5095579;28;20028;-17
2023/03/12 00:38:42;;;;;;;13.77;5.90;;;10.40;59.40;;;;;;5095152;28;20012;-18
2023/03/12 00:41:08;;;;;;;9.13;5.05;;;10.30;59.70;;;;;;5095710;28;20024;-19
2023/03/12 00:43:34;;;;;;;9.98;5.00;;;10.20;60.50;;;;;;5095494;28;20027;-18
2023/03/12 00:46:00;;;;;;;10.32;5.63;;;10.20;60.40;;;;;;5095308;28;20063;-18
2023/03/12 00:48:26;;;;;;;10.05;5.95;;;10.20;61.30;;;;;;5095350;28;20051;-19
2023/03/12 00:50:52;;;;;;;9.45;5.30;;;10.20;61.30;;;;;;5095110;28;20035;-17
2023/03/12 00:53:18;;;;;;;12.13;6.60;;;10.10;61.90;;;;;;5095035;28;20017;-17
2023/03/12 00:55:44;;;;;;;10.73;5.50;;;10.00;62.00;;;;;;5076429;28;20494;-18
2023/03/12 00:58:10;;;;;;;10.57;6.03;;;9.90;62.30;;;;;;5095210;28;20073;-17
2023/03/12 01:00:36;;;;;;;11.48;6.75;;;9.90;62.50;;;;;;5094900;28;20487;-18
2023/03/12 01:03:02;;;;;;;11.68;6.47;;;9.80;63.10;;;;;;5094965;28;20027;-16
2023/03/12 01:05:28;;;;;;;10.10;6.20;;;9.70;64.00;;;;;;5094966;28;20024;-17
2023/03/12 01:07:53;;;;;;;10.27;6.05;;;9.70;64.10;;;;;;5094771;28;20020;-18
2023/03/12 01:10:20;;;;;;;9.68;5.97;;;9.60;64.10;;;;;;5094694;28;20336;-17
2023/03/12 01:12:47;;;;;;;9.75;5.60;;;9.60;64.40;;;;;;5094600;28;20123;-17
2023/03/12 01:15:16;;;;;;;10.82;5.60;;;9.60;64.20;;;;;;5094791;28;20028;-17
2023/03/12 01:17:42;;;;;;;9.23;5.10;;;9.50;64.20;;;;;;5094860;28;20486;-19
2023/03/12 01:20:09;;;;;;;7.88;4.80;;;9.50;63.80;;;;;;5094705;28;20063;-18
2023/03/12 01:22:36;;;;;;;7.95;4.57;;;9.50;63.60;;;;;;5094230;28;20035;-18
2023/03/12 01:25:02;;;;;;;6.93;4.18;;;9.50;63.20;;;;;;5094167;28;20491;-17
2023/03/12 01:27:28;;;;;;;6.65;3.80;;;9.60;62.30;;;;;;5076094;28;20122;-18
2023/03/12 01:29:54;;;;;;;8.77;4.35;;;9.60;61.60;;;;;;5094513;28;20059;-18
2023/03/12 01:32:20;;;;;;;5.35;3.42;;;9.70;60.80;;;;;;5094322;28;20024;-17
2023/03/12 01:34:46;;;;;;;6.13;3.45;;;9.70;61.10;;;;;;5094313;28;20040;-17
2023/03/12 01:37:12;;;;;;;5.85;3.53;;;9.80;60.80;;;;;;5094052;28;20130;-17
2023/03/12 01:39:38;;;;;;;5.07;3.45;;;9.80;60.90;;;;;;5094216;28;20110;-18
2023/03/12 01:42:04;;;;;;;6.35;3.28;;;9.80;60.50;;;;;;5094249;28;20032;-17
2023/03/12 01:44:47;;;;;;;6.38;2.97;;;9.90;60.40;;;;;;5094343;28;20075;-17
2023/03/12 01:47:13;;;;;;;5.65;2.90;;;9.90;61.00;;;;;;5094162;28;20027;-17
2023/03/12 01:49:39;;;;;;;4.60;2.80;;;9.90;61.80;;;;;;5094184;28;20020;-17
2023/03/12 01:52:07;;;;;;;5.18;3.10;;;9.80;62.10;;;;;;5094144;28;20032;-18
2023/03/12 01:54:36;;;;;;;5.75;3.13;;;9.80;61.80;;;;;;5094046;28;20478;-17
2023/03/12 01:57:05;;;;;;;4.93;3.10;;;9.80;61.60;;;;;;5093914;28;20051;-17
2023/03/12 01:59:53;;;;;;;6.55;3.60;;;9.80;61.40;;;;;;5093790;28;20479;-17
2023/03/12 02:02:23;;;;;;;6.60;3.45;;;9.90;61.20;;;;;;5075762;28;20028;-16
2023/03/12 02:04:51;;;;;;;4.57;3.10;;;9.90;61.20;;;;;;5076399;28;20025;-18
2023/03/12 02:07:17;;;;;;;6.47;3.05;;;9.80;61.20;;;;;;5093285;28;20052;-18
2023/03/12 02:09:48;;;;;;;4.82;2.70;;;9.90;61.20;;;;;;5093219;28;20060;-17
2023/03/12 02:12:15;;;;;;;4.30;2.75;;;9.80;61.40;;;;;;5093598;28;20028;-16
2023/03/12 02:14:42;;;;;;;3.80;2.78;;;9.80;61.40;;;;;;5093442;28;20064;-18
2023/03/12 02:17:09;;;;;;;3.30;2.47;;;9.80;60.80;;;;;;5093853;28;20060;-17
2023/03/12 02:19:34;;;;;;;4.43;2.80;;;9.90;61.60;;;;;;5093638;28;20035;-17
2023/03/12 02:22:01;;;;;;;5.50;2.85;;;9.90;61.10;;;;;;5093098;28;20407;-18
2023/03/12 02:24:39;;;;;;;4.55;2.80;;;9.90;61.20;;;;;;5093317;28;20028;-16
2023/03/12 02:27:05;;;;;;;4.00;2.80;;;9.90;61.50;;;;;;5093450;28;20020;-17
2023/03/12 02:29:33;;;;;;;4.63;2.80;;;9.90;61.30;;;;;;5093150;28;20036;-19
2023/03/12 02:32:03;;;;;;;4.70;2.58;;;9.90;61.70;;;;;;5093203;28;20019;-17
2023/03/12 02:34:29;;;;;;;4.93;2.83;;;9.90;62.00;;;;;;5093087;28;20016;-18
2023/03/12 02:36:55;;;;;;;3.97;2.90;;;9.90;62.50;;;;;;5092668;28;20024;-17
2023/03/12 02:39:20;;;;;;;5.30;2.78;;;9.80;62.00;;;;;;5093000;28;20103;-17
2023/03/12 02:41:52;;;;;;;3.60;2.80;;;9.80;62.40;;;;;;5093034;28;20051;-17
2023/03/12 02:44:21;;;;;;;3.03;2.40;;;9.70;62.60;;;;;;5093230;28;20028;-17
2023/03/12 02:46:50;;;;;;;4.13;2.75;;;9.70;62.50;;;;;;5092765;28;20055;-17
2023/03/12 02:49:18;;;;;;;4.03;2.88;;;9.70;62.50;;;;;;5138774;22;20144;-13
2023/03/12 02:51:44;;;;;;;4.22;2.60;;;9.70;62.90;;;;;;5052759;28;20025;-15
2023/03/12 02:54:12;;;;;;;4.88;2.95;;;9.70;62.60;;;;;;5053298;28;20056;-15
2023/03/12 02:56:38;;;;;;;4.97;3.00;;;9.70;62.70;;;;;;5052638;28;20392;-14
2023/03/12 02:59:05;;;;;;;6.18;3.20;;;9.70;62.50;;;;;;5053021;28;20045;-17
2023/03/12 03:01:33;;;;;;;3.78;3.05;;;9.70;62.50;;;;;;5052804;28;20028;-16
2023/03/12 03:04:01;;;;;;;4.13;2.60;;;9.70;62.00;;;;;;5126441;22;20023;-17
2023/03/12 03:06:26;;;;;;;3.97;2.78;;;9.70;62.20;;;;;;5092360;28;20120;-17
2023/03/12 03:08:52;;;;;;;3.40;2.50;;;9.70;61.80;;;;;;5092673;28;20024;-18
2023/03/12 03:11:23;;;;;;;4.47;2.88;;;9.80;61.90;;;;;;5092666;28;20024;-19
2023/03/12 03:13:50;;;;;;;3.08;2.60;;;9.80;61.90;;;;;;5092545;28;20028;-19
2023/03/12 03:16:16;;;;;;;5.38;2.58;;;9.80;61.60;;;;;;5092509;28;20035;-19
2023/03/12 03:18:42;;;;;;;3.35;2.42;;;9.80;61.50;;;;;;5092448;28;20012;-19
2023/03/12 03:21:13;;;;;;;2.95;2.20;;;9.80;61.40;;;;;;5092685;28;20043;-20
2023/03/12 03:23:39;;;;;;;4.25;2.80;;;9.80;61.40;;;;;;5092742;28;20055;-18
2023/03/12 03:26:04;;;;;;;4.55;2.90;;;9.80;61.30;;;;;;5092567;28;20478;-19
2023/03/12 03:28:30;;;;;;;3.28;2.60;;;9.80;61.30;;;;;;5092332;28;20016;-19
2023/03/12 03:30:59;;;;;;;4.38;2.80;;;9.90;61.00;;;;;;5146095;22;20054;-16
2023/03/12 03:33:25;;;;;;;4.75;3.28;;;9.80;60.90;;;;;;5092826;28;20085;-18
2023/03/12 03:35:54;;;;;;;4.25;2.78;;;9.80;61.20;;;;;;5092420;28;20127;-18
2023/03/12 03:38:21;;;;;;;5.50;2.97;;;9.70;61.50;;;;;;5092389;28;20544;-18
2023/03/12 03:40:47;;;;;;;3.28;2.58;;;9.70;61.60;;;;;;5140854;22;20065;-18
2023/03/12 03:43:14;;;;;;;3.75;2.65;;;9.70;61.10;;;;;;5051996;28;20029;-18
2023/03/12 03:45:43;;;;;;;4.88;3.35;;;9.60;61.70;;;;;;5051977;28;20028;-19
2023/03/12 03:48:10;;;;;;;5.78;2.90;;;9.60;61.80;;;;;;5052147;28;20112;-18
2023/03/12 03:50:40;;;;;;;5.10;3.10;;;9.60;62.00;;;;;;5052187;28;20033;-20
2023/03/12 03:53:07;;;;;;;4.75;2.95;;;9.50;62.20;;;;;;5052212;28;20033;-18
2023/03/12 03:55:39;;;;;;;5.10;3.15;;;9.50;62.40;;;;;;5052158;28;20029;-19
2023/03/12 03:58:05;;;;;;;5.25;2.90;;;9.40;61.10;;;;;;5052154;28;20094;-18
2023/03/12 04:00:32;;;;;;;4.50;3.00;;;9.40;61.10;;;;;;5034406;28;20498;-19
2023/03/12 04:02:57;;;;;;;4.15;2.90;;;9.40;61.10;;;;;;5051494;28;20100;-19
2023/03/12 04:05:24;;;;;;;4.80;3.10;;;9.40;60.60;;;;;;5051722;28;20120;-18
2023/03/12 04:07:52;;;;;;;5.15;2.92;;;9.30;60.90;;;;;;5051724;28;20021;-19
2023/03/12 04:10:20;;;;;;;3.67;2.80;;;9.30;61.30;;;;;;5051870;28;20036;-18
2023/03/12 04:12:46;;;;;;;5.63;3.10;;;9.30;61.10;;;;;;5033652;28;20021;-19
2023/03/12 04:15:12;;;;;;;4.53;2.70;;;9.20;61.60;;;;;;5051659;28;20033;-18
2023/03/12 04:17:38;;;;;;;5.50;2.90;;;9.20;61.20;;;;;;5051732;28;20024;-18
2023/03/12 04:20:08;;;;;;;4.93;2.65;;;9.10;60.10;;;;;;5051907;28;20033;-18
2023/03/12 04:22:34;;;;;;;4.53;2.85;;;9.20;60.60;;;;;;5051599;28;20502;-20
2023/03/12 04:25:00;;;;;;;3.65;2.60;;;9.10;59.60;;;;;;5051331;28;20025;-19
2023/03/12 04:27:26;;;;;;;3.63;2.47;;;9.10;60.60;;;;;;5051501;28;20033;-19
2023/03/12 04:29:52;;;;;;;4.15;2.90;;;9.10;60.40;;;;;;5051802;28;20033;-18
2023/03/12 04:32:18;;;;;;;4.80;2.70;;;9.00;60.60;;;;;;5054020;28;20071;-19
2023/03/12 04:34:44;;;;;;;3.72;2.53;;;8.90;60.80;;;;;;5055165;28;20120;-20
2023/03/12 04:37:12;;;;;;;3.88;2.70;;;8.90;60.40;;;;;;5055478;28;20025;-19
2023/03/12 04:39:39;;;;;;;4.53;2.50;;;8.80;60.40;;;;;;5055143;28;20106;-18
2023/03/12 04:42:05;;;;;;;5.07;2.80;;;8.70;60.80;;;;;;5055320;28;20116;-19
2023/03/12 04:44:31;;;;;;;4.97;2.97;;;8.70;60.70;;;;;;5055079;28;20036;-19
2023/03/12 04:46:57;;;;;;;3.50;2.58;;;8.60;61.50;;;;;;5054977;28;20029;-18
2023/03/12 04:49:23;;;;;;;2.80;2.45;;;8.50;61.70;;;;;;5055119;28;20495;-19
2023/03/12 04:51:49;;;;;;;3.95;2.60;;;8.40;61.90;;;;;;5055106;28;20032;-19
2023/03/12 04:54:14;;;;;;;4.03;2.60;;;8.30;62.00;;;;;;5036795;28;20373;-19
2023/03/12 04:56:40;;;;;;;3.20;2.42;;;8.20;62.10;;;;;;5054592;28;20044;-19
2023/03/12 04:59:06;;;;;;;4.00;2.50;;;8.20;62.20;;;;;;5054668;28;20122;-19
2023/03/12 05:01:34;;;;;;;4.15;2.78;;;8.10;62.50;;;;;;5055012;28;20044;-18
2023/03/12 05:04:01;;;;;;;5.47;2.88;;;8.10;62.60;;;;;;5054946;28;20025;-22
2023/03/12 05:06:26;;;;;;;2.67;2.25;;;8.10;62.60;;;;;;5054610;28;20484;-20
2023/03/12 05:08:52;;;;;;;2.70;2.10;;;8.10;62.70;;;;;;5054337;28;20029;-20
2023/03/12 05:11:18;;;;;;;4.93;2.50;;;8.00;62.80;;;;;;5054604;28;20334;-19
2023/03/12 05:13:44;;;;;;;4.25;2.78;;;8.00;63.00;;;;;;5054587;28;20086;-18
2023/03/12 05:16:12;;;;;;;3.38;2.53;;;8.10;62.80;;;;;;5054456;28;20025;-18
2023/03/12 05:18:37;;;;;;;4.13;2.83;;;8.00;62.70;;;;;;5054376;28;20492;-18
2023/03/12 05:21:07;;;;;;;3.65;2.30;;;8.00;62.70;;;;;;5054257;28;20064;-17
2023/03/12 05:23:34;;;;;;;5.55;2.70;;;7.90;62.80;;;;;;5054542;28;20029;-16
2023/03/12 05:26:00;;;;;;;4.32;2.38;;;7.80;63.10;;;;;;5054255;28;20029;-17
2023/03/12 05:28:27;;;;;;;2.38;2.15;;;7.70;63.40;;;;;;5054345;28;20078;-16
2023/03/12 05:30:55;;;;;;;2.67;2.33;;;7.60;63.70;;;;;;5054027;28;20112;-19
2023/03/12 05:33:21;;;;;;;3.20;2.17;;;7.50;64.10;;;;;;5054502;28;20021;-20
2023/03/12 05:35:47;;;;;;;3.85;2.65;;;7.40;64.10;;;;;;5054551;28;20033;-18
2023/03/12 05:38:13;;;;;;;2.40;2.20;;;7.30;64.30;;;;;;5054093;28;20032;-18
2023/03/12 05:40:39;;;;;;;5.22;2.83;;;7.20;64.40;;;;;;5053358;28;20045;-19
2023/03/12 05:43:04;;;;;;;2.75;2.38;;;7.10;64.70;;;;;;5052968;28;20025;-21
2023/03/12 05:48:00;;;;;;;3.78;2.50;;;7.00;64.80;;;;;;5048527;28;20273;-16
2023/03/12 05:50:26;;;;;;;3.05;2.50;;;6.90;65.00;;;;;;5054049;28;20032;-17
2023/03/12 05:52:52;;;;;;;4.45;2.65;;;6.90;65.10;;;;;;5052523;28;20060;-16
2023/03/12 05:55:18;;;;;;;6.57;3.33;;;6.80;65.20;;;;;;5146431;22;20030;-14
2023/03/12 05:57:43;;;;;;;3.92;2.70;;;6.70;65.50;;;;;;5074191;28;20055;-16
2023/03/12 06:00:13;;;;;;;3.35;2.50;;;6.70;65.60;;;;;;5074328;28;20114;-18
2023/03/12 06:02:38;;;;;;;6.63;3.25;;;6.60;65.70;;;;;;5073571;28;20498;-17
2023/03/12 06:05:05;;;;;;;5.28;3.10;;;6.60;65.90;;;;;;5073829;28;20025;-16
2023/03/12 06:07:31;;;;;;;5.72;3.13;;;6.60;65.90;;;;;;5073527;28;20051;-17
2023/03/12 06:09:58;;;;;;;4.65;3.10;;;6.60;65.90;;;;;;5073767;28;20028;-16
2023/03/12 06:12:24;;;;;;;6.78;3.75;;;6.50;65.90;;;;;;5073620;28;20112;-17
2023/03/12 06:14:50;;;;;;;4.45;3.10;;;6.60;66.10;;;;;;5144616;22;20139;-18
2023/03/12 06:17:16;;;;;;;5.53;3.22;;;6.70;66.20;;;;;;5073322;28;20437;-21
2023/03/12 06:19:42;;;;;;;4.88;3.53;;;6.90;66.30;;;;;;5219528;22;20502;-17
2023/03/12 06:22:08;;;;;;;6.85;3.45;;;7.10;66.20;;;;;;5093960;28;20099;-16
2023/03/12 06:24:34;;;;;;;9.30;3.97;;;7.40;66.10;;;;;;5176009;22;20110;-21
2023/03/12 06:27:00;;;;;;;7.78;4.05;;;7.60;65.90;;;;;;5053252;28;20112;-21
2023/03/12 06:29:26;;;;;;;6.13;3.75;;;7.90;65.60;;;;;;5053645;28;20036;-20
2023/03/12 06:31:52;;;;;;;6.63;4.00;;;8.10;65.30;;;;;;5053515;28;20021;-21
2023/03/12 06:34:18;;;;;;;6.03;3.50;;;8.30;64.90;;;;;;5053272;28;20544;-21
2023/03/12 06:36:44;;;;;;;5.93;3.85;;;8.40;64.30;;;;;;5053331;28;20032;-21
2023/03/12 06:39:10;;;;;;;5.28;3.58;;;8.50;63.80;;;;;;5053058;28;20472;-21
2023/03/12 06:41:36;;;;;;;6.40;4.00;;;8.60;63.40;;;;;;5053130;28;20025;-22
2023/03/12 06:44:04;;;;;;;6.60;4.05;;;8.70;63.10;;;;;;5053407;28;20032;-20
2023/03/12 06:46:31;;;;;;;7.82;3.90;;;8.70;62.70;;;;;;5053364;28;20025;-21
2023/03/12 06:51:26;;;;;;;7.43;3.95;;;8.90;61.60;;;;;;5029623;28;20467;-17
2023/03/12 06:53:52;;;;;;;7.68;4.47;;;8.90;61.30;;;;;;5032849;28;20025;-18
2023/03/12 06:56:18;;;;;;;7.68;4.07;;;8.90;60.90;;;;;;5032981;28;20025;-16
2023/03/12 06:58:44;;;;;;;6.82;3.92;;;8.90;60.70;;;;;;5032588;28;20044;-15
2023/03/12 07:01:10;;;;;;;8.32;3.50;;;9.00;59.50;;;;;;5032765;28;20029;-16
2023/03/12 07:03:36;;;;;;;5.20;3.30;;;9.20;60.20;;;;;;5138092;22;20102;-19
2023/03/12 07:06:02;;;;;;;7.18;3.20;;;9.40;59.40;;;;;;5072402;28;20028;-18
2023/03/12 07:08:29;;;;;;;4.35;3.13;;;9.70;58.50;;;;;;5128753;22;20129;-17
2023/03/12 07:10:56;;;;;;;4.22;3.15;;;10.10;58.00;;;;;;5072664;28;20099;-17
2023/03/12 07:13:22;;;;;;;4.57;3.13;;;10.40;56.30;;;;;;5072696;28;20024;-15
2023/03/12 07:15:49;;;;;;;5.97;3.70;;;10.80;55.70;;;;;;5157708;22;20055;-20
2023/03/12 07:18:14;;;;;;;5.40;3.60;;;10.90;52.60;;;;;;5072508;28;20041;-20
2023/03/12 07:20:42;;;;;;;10.35;3.83;;;11.10;53.00;;;;;;5072325;28;20063;-21
2023/03/12 07:23:09;;;;;;;7.32;3.85;;;11.30;49.40;;;;;;5128685;22;20056;-18
2023/03/12 07:25:40;;;;;;;5.55;3.20;;;11.40;51.20;;;;;;5054272;28;20039;-17
2023/03/12 07:28:07;;;;;;;6.18;2.78;;;11.60;49.70;;;;;;5072383;28;20475;-15
2023/03/12 07:30:33;;;;;;;4.63;2.90;;;11.70;47.90;;;;;;5143858;22;20462;-19
2023/03/12 07:33:08;;;;;;;4.70;2.88;;;11.90;47.40;;;;;;5072123;28;20025;-21
2023/03/12 07:35:37;;;;;;;3.40;2.60;;;12.00;47.20;;;;;;5072644;28;20024;-19
2023/03/12 07:38:03;;;;;;;5.78;3.10;;;12.00;46.10;;;;;;5127172;22;20134;-14
2023/03/12 07:40:29;;;;;;;3.45;2.50;;;12.10;46.90;;;;;;5072220;28;20472;-15
2023/03/12 07:42:55;;;;;;;6.75;3.00;;;11.80;45.80;;;;;;5072164;28;20027;-12
2023/03/12 07:45:22;;;;;;;3.85;2.60;;;11.60;46.10;;;;;;5072567;28;20025;-14
2023/03/12 07:47:48;;;;;;;4.57;2.80;;;11.60;46.60;;;;;;5072092;28;20093;-14
2023/03/12 07:50:14;;;;;;;6.05;2.70;;;11.60;47.60;;;;;;5070797;28;20028;-15
2023/03/12 07:52:40;;;;;;;4.75;2.72;;;11.80;45.80;;;;;;5071774;28;20090;-15
2023/03/12 07:55:06;;;;;;;4.60;2.80;;;11.90;45.70;;;;;;5072084;28;20029;-16
2023/03/12 07:57:32;;;;;;;6.18;2.75;;;12.00;46.50;;;;;;5071885;28;20028;-15
2023/03/12 07:59:58;;;;;;;5.05;3.17;;;12.20;46.00;;;;;;5072115;28;20033;-15
2023/03/12 08:02:23;;;;;;;5.85;3.35;;;12.30;45.70;;;;;;5072283;28;20384;-16
2023/03/12 08:04:49;;;;;;;3.65;2.63;;;12.50;46.50;;;;;;5143713;22;20116;-18
2023/03/12 08:07:15;;;;;;;6.38;3.10;;;12.70;45.20;;;;;;5074701;28;20063;-19
2023/03/12 08:09:41;;;;;;;4.32;2.97;;;13.00;44.80;;;;;;5075807;28;20395;-18
2023/03/12 08:12:07;;;;;;;3.88;2.67;;;13.10;44.40;;;;;;5075909;28;20028;-19
2023/03/12 08:14:33;;;;;;;5.40;3.53;;;13.10;43.10;;;;;;5074582;28;20040;-19
2023/03/12 08:16:59;;;;;;;5.80;3.17;;;13.10;43.20;;;;;;5075405;28;20022;-19
2023/03/12 08:19:26;;;;;;;4.57;2.90;;;13.10;44.60;;;;;;5128619;22;20056;-11
2023/03/12 08:21:52;;;;;;;5.95;2.95;;;13.00;44.40;;;;;;5075589;28;20082;-14
2023/03/12 08:24:20;;;;;;;7.45;3.70;;;12.90;44.60;;;;;;5075771;28;20108;-17
2023/03/12 08:26:47;;;;;;;8.82;4.53;;;12.90;44.20;;;;;;5075265;28;20020;-14
2023/03/12 08:29:13;;;;;;;5.30;3.30;;;12.90;44.80;;;;;;5075444;28;20070;-15
2023/03/12 08:31:39;;;;;;;4.35;2.90;;;13.10;44.20;;;;;;5075836;28;20032;-16
2023/03/12 08:34:04;;;;;;;4.75;3.15;;;13.30;44.00;;;;;;5075619;28;20024;-15
2023/03/12 08:36:30;;;;;;;4.28;2.58;;;13.40;43.60;;;;;;5075318;28;20104;-15
2023/03/12 08:38:56;;;;;;;4.38;2.83;;;13.50;42.80;;;;;;5074994;28;20031;-17
2023/03/12 08:41:22;;;;;;;4.95;3.33;;;13.60;42.70;;;;;;5075543;28;20037;-14
2023/03/12 08:43:47;;;;;;;5.53;3.25;;;13.70;43.50;;;;;;5075290;28;20025;-16
2023/03/12 08:46:13;;;;;;;6.43;3.13;;;13.70;42.60;;;;;;5075462;28;20029;-16
2023/03/12 08:48:39;;;;;;;6.53;3.55;;;13.80;43.50;;;;;;5074692;28;20495;-13
2023/03/12 08:51:06;;;;;;;5.07;2.97;;;13.80;42.80;;;;;;5074999;28;20342;-17
2023/03/12 08:53:34;;;;;;;4.55;2.67;;;13.90;41.60;;;;;;5075032;28;20027;-16
2023/03/12 08:56:01;;;;;;;5.18;3.03;;;14.10;43.40;;;;;;5075147;28;20029;-14
2023/03/12 08:58:27;;;;;;;5.03;2.70;;;14.30;42.00;;;;;;5074998;28;20028;-15
2023/03/12 09:00:54;;;;;;;4.32;2.80;;;14.50;41.90;;;;;;5074967;28;20033;-14
2023/03/12 09:03:20;;;;;;;7.28;2.92;;;14.60;40.00;;;;;;5074866;28;20028;-14
2023/03/12 09:05:47;;;;;;;3.83;2.90;;;14.60;39.50;;;;;;5075066;28;20032;-15
2023/03/12 09:08:13;;;;;;;4.47;2.75;;;14.80;41.40;;;;;;5074925;28;20029;-16
2023/03/12 09:10:45;;;;;;;4.85;3.03;;;14.90;40.80;;;;;;5074452;28;20132;-15
2023/03/12 09:13:11;;;;;;;5.13;3.08;;;15.10;40.60;;;;;;5074969;28;20027;-15
2023/03/12 09:15:37;;;;;;;3.30;2.55;;;15.30;40.70;;;;;;5074935;28;20032;-16
2023/03/12 09:18:02;;;;;;;5.30;2.95;;;15.50;40.40;;;;;;5074292;28;20028;-15
2023/03/12 09:20:28;;;;;;;4.43;3.10;;;15.70;39.20;;;;;;5074338;28;20466;-16
2023/03/12 09:22:54;;;;;;;3.65;2.83;;;15.50;38.60;;;;;;5074555;28;20090;-16
2023/03/12 09:25:22;;;;;;;6.07;3.17;;;15.60;38.60;;;;;;5074494;28;20391;-15
2023/03/12 09:27:48;;;;;;;4.22;3.03;;;15.80;39.60;;;;;;5074552;28;20035;-15
2023/03/12 09:30:19;;;;;;;4.32;2.72;;;16.00;39.00;;;;;;5074301;28;20078;-15
2023/03/12 09:32:45;;;;;;;4.20;2.72;;;16.30;38.40;;;;;;5074023;28;20028;-13
2023/03/12 09:35:13;;;;;;;3.33;2.70;;;16.10;38.00;;;;;;5074732;28;20422;-15
2023/03/12 09:37:39;;;;;;;4.15;2.90;;;16.20;39.30;;;;;;5164234;22;20060;-16
2023/03/12 09:40:09;;;;;;;3.85;2.97;;;16.30;39.10;;;;;;5093123;28;20111;-14
2023/03/12 09:43:07;;;;;;;5.22;2.83;;;16.50;38.10;;;;;;5151061;22;20439;-16
2023/03/12 09:45:38;;;;;;;5.05;3.08;;;16.80;37.10;;;;;;4992407;28;20038;-14
2023/03/12 09:48:19;;;;;;;4.68;2.90;;;17.00;36.60;;;;;;4992549;28;20058;-15
2023/03/12 09:50:49;;;;;;;5.15;2.83;;;17.20;36.70;;;;;;4992467;28;20057;-12
2023/03/12 09:53:45;;;;;;;4.03;2.72;;;17.20;36.00;;;;;;4992802;28;20033;-13
2023/03/12 09:56:16;;;;;;;3.67;2.92;;;17.10;36.50;;;;;;4992421;28;20045;-16
2023/03/12 09:58:44;;;;;;;4.15;3.10;;;17.00;36.30;;;;;;4992295;28;20023;-16
2023/03/12 10:01:33;;;;;;;3.28;2.70;;;16.90;37.20;;;;;;4992268;28;20045;-15
2023/03/12 10:04:19;;;;;;;13.65;4.70;;;17.10;36.70;;;;;;4992540;28;20030;-14
2023/03/12 10:06:55;;;;;;;8.25;3.90;;;17.40;35.40;;;;;;4992230;28;20037;-15
2023/03/12 10:09:45;;;;;;;3.00;2.70;;;17.50;35.80;;;;;;4992433;28;20042;-17
2023/03/12 10:12:13;;;;;;;4.07;2.92;;;17.40;35.50;;;;;;4992274;28;20027;-18
2023/03/12 10:15:14;;;;;;;3.65;2.72;;;17.30;36.90;;;;;;4991874;28;20040;-15
2023/03/12 10:18:01;;;;;;;4.55;2.95;;;17.40;34.80;;;;;;4971499;28;20027;-17
2023/03/12 10:20:49;;;;;;;4.45;2.90;;;17.20;35.60;;;;;;5005381;28;20025;-17
2023/03/12 10:23:29;;;;;;;8.60;4.10;;;17.20;35.70;;;;;;5053313;28;20055;-17
2023/03/12 10:26:18;;;;;;;5.95;3.15;;;17.30;35.50;;;;;;5053699;28;20107;-15
2023/03/12 10:29:01;;;;;;;7.30;3.20;;;17.20;36.00;;;;;;5052649;28;20033;-17
2023/03/12 10:31:31;;;;;;;5.20;3.20;;;17.40;34.80;;;;;;5053534;28;20028;-14
2023/03/12 10:33:59;;;;;;;4.88;3.13;;;17.50;35.10;;;;;;5053114;28;20043;-15
2023/03/12 10:36:35;;;;;;;6.00;3.50;;;17.80;35.60;;;;;;5053169;28;20021;-15
2023/03/12 10:39:01;;;;;;;5.03;3.50;;;18.10;34.50;;;;;;5053127;28;20097;-15
2023/03/12 10:41:30;;;;;;;6.68;3.70;;;18.30;34.60;;;;;;5166980;22;20051;-19
2023/03/12 10:44:02;;;;;;;7.95;4.32;;;18.50;33.80;;;;;;5093656;28;20031;-19
2023/03/12 10:46:45;;;;;;;5.10;3.03;;;18.70;34.30;;;;;;5136373;22;20053;-16
2023/03/12 10:49:20;;;;;;;4.25;2.63;;;18.70;33.80;;;;;;5073272;28;20025;-16
2023/03/12 10:52:04;;;;;;;4.55;3.00;;;18.60;33.10;;;;;;5072707;28;20119;-15
2023/03/12 10:54:29;;;;;;;;;;;18.40;32.80;;;;;;5073321;28;20056;-16
2023/03/12 10:56:56;;;;;;;5.13;2.92;;;18.40;32.80;;;;;;5072834;28;19923;-17
2023/03/12 10:59:29;;;;;;;4.97;2.95;;;18.60;34.30;;;;;;5055327;28;20502;-15
2023/03/12 11:01:56;;;;;;;4.63;3.03;;;18.80;34.00;;;;;;5072821;28;20017;-17
2023/03/12 11:04:29;;;;;;;4.65;3.10;;;18.80;33.50;;;;;;5072728;28;20512;-15
2023/03/12 11:07:13;;;;;;;3.80;2.78;;;18.60;33.30;;;;;;5072462;28;20069;-15
2023/03/12 11:09:39;;;;;;;4.18;2.90;;;18.50;33.40;;;;;;5072693;28;20085;-16
2023/03/12 11:12:25;;;;;;;3.88;2.80;;;18.70;33.70;;;;;;5072694;28;20016;-15
2023/03/12 11:14:51;;;;;;;4.25;2.88;;;18.80;33.50;;;;;;5072139;28;20020;-17
2023/03/12 11:17:28;;;;;;;4.70;2.92;;;19.10;33.30;;;;;;5072621;28;20039;-16
2023/03/12 11:19:54;;;;;;;4.38;2.50;;;19.50;33.00;;;;;;5072365;28;20111;-15
2023/03/12 11:22:33;;;;;;;5.43;3.00;;;20.00;31.60;;;;;;5072845;28;20107;-15
2023/03/12 11:25:02;;;;;;;4.35;3.25;;;20.50;30.50;;;;;;5072131;28;20028;-15
2023/03/12 11:27:41;;;;;;;7.70;3.10;;;20.70;30.40;;;;;;5072310;28;20056;-16
2023/03/12 11:30:13;;;;;;;3.30;2.65;;;20.70;31.10;;;;;;5072591;28;20421;-15
2023/03/12 11:32:47;;;;;;;3.67;2.80;;;20.90;31.60;;;;;;5072144;28;20037;-15
2023/03/12 11:35:16;;;;;;;4.60;2.80;;;21.20;30.70;;;;;;5072381;28;20032;-14
2023/03/12 11:38:01;;;;;;;4.15;2.75;;;21.40;30.20;;;;;;5160049;22;20044;-17
2023/03/12 11:41:00;;;;;;;3.35;2.83;;;21.30;29.30;;;;;;5073703;28;20391;-15
2023/03/12 11:43:57;;;;;;;5.90;3.30;;;21.40;28.60;;;;;;5076695;28;20074;-16
2023/03/12 11:46:44;;;;;;;3.78;2.78;;;21.50;29.30;;;;;;5076324;28;20533;-18
2023/03/12 11:49:37;;;;;;;4.07;3.00;;;21.80;31.10;;;;;;5076518;28;20040;-13
2023/03/12 11:52:30;;;;;;;4.38;2.80;;;22.20;30.70;;;;;;5076221;28;20067;-16
2023/03/12 11:55:29;;;;;;;4.40;3.10;;;22.50;30.00;;;;;;5047830;28;20033;-17
2023/03/12 11:58:25;;;;;;;3.80;2.88;;;22.50;29.20;;;;;;5161144;22;20315;-17
2023/03/12 12:03:31;;;;;;;3.10;2.58;;;22.60;29.10;;;;;;5072597;28;20495;-15
2023/03/12 12:06:09;;;;;;;4.35;2.60;;;22.70;29.80;;;;;;5076123;28;20028;-15
2023/03/12 12:09:05;;;;;;;2.92;2.30;;;22.80;29.00;;;;;;5076084;28;20563;-13
2023/03/12 12:11:40;;;;;;;3.47;2.72;;;23.00;29.70;;;;;;5075924;28;20454;-14
2023/03/12 12:14:13;;;;;;;4.28;2.88;;;23.50;26.70;;;;;;5075974;28;20028;-16
2023/03/12 12:16:59;;;;;;;3.67;2.47;;;23.90;26.00;;;;;;5075605;28;20556;-15
2023/03/12 12:19:30;;;;;;;3.90;2.75;;;23.90;26.50;;;;;;5075764;28;20028;-15
2023/03/12 12:22:02;;;;;;;3.78;2.90;;;24.10;25.80;;;;;;5075640;28;20028;-15
2023/03/12 12:24:36;;;;;;;3.53;2.80;;;24.30;25.10;;;;;;5075816;28;20100;-16
2023/03/12 12:27:13;;;;;;;3.22;2.38;;;24.00;26.20;;;;;;5075657;28;20111;-13
2023/03/12 12:30:16;;;;;;;3.42;2.65;;;24.10;26.60;;;;;;5075498;28;20036;-15
2023/03/12 12:33:03;;;;;;;4.13;2.63;;;24.40;25.90;;;;;;5075281;28;20036;-15
2023/03/12 12:35:40;;;;;;;3.70;2.50;;;24.60;25.30;;;;;;5075795;28;20728;-15
2023/03/12 12:38:21;;;;;;;3.28;2.50;;;24.70;25.20;;;;;;5075326;28;20025;-15
2023/03/12 12:40:52;;;;;;;4.25;2.80;;;24.80;25.40;;;;;;5075015;28;20467;-14
2023/03/12 12:43:27;;;;;;;3.42;2.40;;;24.80;26.00;;;;;;5074026;28;20027;-15
2023/03/12 12:46:10;;;;;;;3.00;2.70;;;24.50;26.90;;;;;;5075323;28;20048;-15
2023/03/12 12:48:45;;;;;;;3.50;2.72;;;24.60;26.90;;;;;;5075429;28;20085;-15
2023/03/12 12:51:13;;;;;;;3.50;2.80;;;24.80;27.20;;;;;;5075247;28;20032;-14
2023/03/12 12:53:39;;;;;;;3.33;2.72;;;25.00;26.10;;;;;;5074760;28;20103;-15
2023/03/12 12:56:21;;;;;;;5.00;2.63;;;25.10;25.70;;;;;;5075255;28;20459;-16
2023/03/12 12:59:05;;;;;;;4.75;3.33;;;25.00;26.00;;;;;;5074852;28;20032;-15
2023/03/12 13:01:34;;;;;;;4.22;3.40;;;24.60;24.90;;;;;;5076431;28;20051;-14
2023/03/12 13:04:29;;;;;;;3.42;3.10;;;24.20;26.40;;;;;;5074789;28;20582;-15
2023/03/12 13:06:57;;;;;;;2.70;2.50;;;23.90;26.80;;;;;;5073138;28;20079;-14
2023/03/12 13:09:39;;;;;;;4.15;3.00;;;24.10;26.70;;;;;;5074810;28;20032;-15
2023/03/12 13:12:27;;;;;;;4.18;2.95;;;24.40;26.10;;;;;;5074965;28;20365;-15